sensor_id;sensor_type;location;lat;lon;timestamp;P1;durP1;ratioP1;P2;durP2;ratioP2
71298;SDS011;59083;47.974;21.722;2022-08-25T00:02:54;18.15;;;6.72;;
71298;SDS011;59083;47.974;21.722;2022-08-25T00:05:56;17.98;;;7.70;;
71298;SDS011;59083;47.974;21.722;2022-08-25T00:08:57;15.52;;;7.25;;
71298;SDS011;59083;47.974;21.722;2022-08-25T00:11:59;15.02;;;7.10;;
71298;SDS011;59083;47.974;21.722;2022-08-25T00:15:01;20.77;;;7.50;;
71298;SDS011;59083;47.974;21.722;2022-08-25T00:18:03;16.15;;;6.95;;
71298;SDS011;59083;47.974;21.722;2022-08-25T00:21:05;14.32;;;7.35;;
71298;SDS011;59083;47.974;21.722;2022-08-25T00:24:08;17.85;;;7.55;;
71298;SDS011;59083;47.974;21.722;2022-08-25T00:27:10;16.02;;;7.47;;
71298;SDS011;59083;47.974;21.722;2022-08-25T00:30:12;17.77;;;7.00;;
71298;SDS011;59083;47.974;21.722;2022-08-25T00:33:16;18.77;;;7.20;;
71298;SDS011;59083;47.974;21.722;2022-08-25T00:36:18;16.10;;;7.43;;
71298;SDS011;59083;47.974;21.722;2022-08-25T00:39:20;19.67;;;7.75;;
71298;SDS011;59083;47.974;21.722;2022-08-25T00:42:23;15.90;;;7.37;;
71298;SDS011;59083;47.974;21.722;2022-08-25T00:45:25;16.73;;;7.80;;
71298;SDS011;59083;47.974;21.722;2022-08-25T00:48:26;15.30;;;7.90;;
71298;SDS011;59083;47.974;21.722;2022-08-25T00:51:32;17.60;;;7.57;;
71298;SDS011;59083;47.974;21.722;2022-08-25T00:54:52;18.90;;;7.70;;
71298;SDS011;59083;47.974;21.722;2022-08-25T00:57:55;20.40;;;7.65;;
71298;SDS011;59083;47.974;21.722;2022-08-25T01:01:00;23.83;;;7.47;;
71298;SDS011;59083;47.974;21.722;2022-08-25T01:04:01;18.58;;;7.85;;
71298;SDS011;59083;47.974;21.722;2022-08-25T01:07:03;17.20;;;7.72;;
71298;SDS011;59083;47.974;21.722;2022-08-25T01:10:06;15.25;;;7.30;;
71298;SDS011;59083;47.974;21.722;2022-08-25T01:13:14;23.00;;;7.53;;
71298;SDS011;59083;47.974;21.722;2022-08-25T01:16:19;14.67;;;7.50;;
71298;SDS011;59083;47.974;21.722;2022-08-25T01:19:20;19.92;;;7.97;;
71298;SDS011;59083;47.974;21.722;2022-08-25T01:22:21;16.20;;;7.93;;
71298;SDS011;59083;47.974;21.722;2022-08-25T01:25:47;23.35;;;8.40;;
71298;SDS011;59083;47.974;21.722;2022-08-25T01:28:53;23.38;;;9.35;;
71298;SDS011;59083;47.974;21.722;2022-08-25T01:32:13;24.07;;;8.00;;
71298;SDS011;59083;47.974;21.722;2022-08-25T01:35:15;29.85;;;8.48;;
71298;SDS011;59083;47.974;21.722;2022-08-25T01:38:17;25.05;;;8.65;;
71298;SDS011;59083;47.974;21.722;2022-08-25T01:41:34;23.42;;;8.10;;
71298;SDS011;59083;47.974;21.722;2022-08-25T01:44:54;23.85;;;8.60;;
71298;SDS011;59083;47.974;21.722;2022-08-25T01:47:55;22.40;;;8.50;;
71298;SDS011;59083;47.974;21.722;2022-08-25T01:50:57;21.87;;;8.63;;
71298;SDS011;59083;47.974;21.722;2022-08-25T01:53:58;18.90;;;7.78;;
71298;SDS011;59083;47.974;21.722;2022-08-25T01:56:59;23.27;;;7.70;;
71298;SDS011;59083;47.974;21.722;2022-08-25T02:00:01;33.72;;;9.63;;
71298;SDS011;59083;47.974;21.722;2022-08-25T02:03:11;29.80;;;8.83;;
71298;SDS011;59083;47.974;21.722;2022-08-25T02:06:13;22.77;;;8.40;;
71298;SDS011;59083;47.974;21.722;2022-08-25T02:09:16;28.87;;;9.10;;
71298;SDS011;59083;47.974;21.722;2022-08-25T02:12:18;28.60;;;9.00;;
71298;SDS011;59083;47.974;21.722;2022-08-25T02:15:19;20.00;;;8.75;;
71298;SDS011;59083;47.974;21.722;2022-08-25T02:18:21;26.80;;;8.57;;
71298;SDS011;59083;47.974;21.722;2022-08-25T02:21:23;24.80;;;9.13;;
71298;SDS011;59083;47.974;21.722;2022-08-25T02:24:25;22.60;;;9.45;;
71298;SDS011;59083;47.974;21.722;2022-08-25T02:27:26;32.75;;;9.80;;
71298;SDS011;59083;47.974;21.722;2022-08-25T02:30:28;27.85;;;9.73;;
71298;SDS011;59083;47.974;21.722;2022-08-25T02:33:29;24.93;;;9.77;;
71298;SDS011;59083;47.974;21.722;2022-08-25T02:36:31;23.62;;;8.95;;
71298;SDS011;59083;47.974;21.722;2022-08-25T02:39:33;23.70;;;8.90;;
71298;SDS011;59083;47.974;21.722;2022-08-25T02:42:34;24.85;;;9.43;;
71298;SDS011;59083;47.974;21.722;2022-08-25T02:45:35;30.17;;;9.60;;
71298;SDS011;59083;47.974;21.722;2022-08-25T02:48:37;30.27;;;9.67;;
71298;SDS011;59083;47.974;21.722;2022-08-25T02:51:39;28.65;;;9.73;;
71298;SDS011;59083;47.974;21.722;2022-08-25T02:54:40;26.87;;;9.73;;
71298;SDS011;59083;47.974;21.722;2022-08-25T02:57:42;36.88;;;9.38;;
71298;SDS011;59083;47.974;21.722;2022-08-25T03:00:44;25.85;;;9.60;;
71298;SDS011;59083;47.974;21.722;2022-08-25T03:03:46;26.20;;;9.70;;
71298;SDS011;59083;47.974;21.722;2022-08-25T03:06:48;29.23;;;9.98;;
71298;SDS011;59083;47.974;21.722;2022-08-25T03:09:49;29.42;;;10.88;;
71298;SDS011;59083;47.974;21.722;2022-08-25T03:12:51;31.70;;;10.38;;
71298;SDS011;59083;47.974;21.722;2022-08-25T03:15:52;31.27;;;12.07;;
71298;SDS011;59083;47.974;21.722;2022-08-25T03:18:54;40.33;;;12.87;;
71298;SDS011;59083;47.974;21.722;2022-08-25T03:21:56;31.95;;;10.38;;
71298;SDS011;59083;47.974;21.722;2022-08-25T03:25:00;35.30;;;10.90;;
71298;SDS011;59083;47.974;21.722;2022-08-25T03:28:20;29.50;;;9.32;;
71298;SDS011;59083;47.974;21.722;2022-08-25T03:31:22;24.23;;;10.05;;
71298;SDS011;59083;47.974;21.722;2022-08-25T03:34:27;29.17;;;10.40;;
71298;SDS011;59083;47.974;21.722;2022-08-25T03:37:29;37.33;;;11.88;;
71298;SDS011;59083;47.974;21.722;2022-08-25T03:40:31;33.45;;;11.60;;
71298;SDS011;59083;47.974;21.722;2022-08-25T03:43:32;34.88;;;11.90;;
71298;SDS011;59083;47.974;21.722;2022-08-25T03:46:36;29.67;;;9.90;;
71298;SDS011;59083;47.974;21.722;2022-08-25T03:49:39;29.90;;;10.00;;
71298;SDS011;59083;47.974;21.722;2022-08-25T03:52:41;25.42;;;10.18;;
71298;SDS011;59083;47.974;21.722;2022-08-25T03:55:42;28.52;;;10.60;;
71298;SDS011;59083;47.974;21.722;2022-08-25T03:58:44;34.42;;;18.55;;
71298;SDS011;59083;47.974;21.722;2022-08-25T04:01:46;39.60;;;11.77;;
71298;SDS011;59083;47.974;21.722;2022-08-25T04:04:47;29.63;;;10.13;;
71298;SDS011;59083;47.974;21.722;2022-08-25T04:07:49;32.63;;;10.73;;
71298;SDS011;59083;47.974;21.722;2022-08-25T04:10:51;29.63;;;11.15;;
71298;SDS011;59083;47.974;21.722;2022-08-25T04:13:54;28.20;;;10.30;;
71298;SDS011;59083;47.974;21.722;2022-08-25T04:16:57;35.35;;;10.95;;
71298;SDS011;59083;47.974;21.722;2022-08-25T04:19:59;36.40;;;10.67;;
71298;SDS011;59083;47.974;21.722;2022-08-25T04:23:02;41.08;;;12.90;;
71298;SDS011;59083;47.974;21.722;2022-08-25T04:26:07;26.70;;;10.57;;
71298;SDS011;59083;47.974;21.722;2022-08-25T04:29:14;36.38;;;11.18;;
71298;SDS011;59083;47.974;21.722;2022-08-25T04:32:18;32.58;;;10.80;;
71298;SDS011;59083;47.974;21.722;2022-08-25T04:35:20;34.77;;;11.50;;
71298;SDS011;59083;47.974;21.722;2022-08-25T04:38:22;30.70;;;11.18;;
71298;SDS011;59083;47.974;21.722;2022-08-25T04:41:24;39.00;;;11.48;;
71298;SDS011;59083;47.974;21.722;2022-08-25T04:44:26;38.75;;;10.05;;
71298;SDS011;59083;47.974;21.722;2022-08-25T04:47:28;29.60;;;9.82;;
71298;SDS011;59083;47.974;21.722;2022-08-25T04:50:30;30.03;;;10.30;;
71298;SDS011;59083;47.974;21.722;2022-08-25T04:53:34;35.33;;;10.38;;
71298;SDS011;59083;47.974;21.722;2022-08-25T04:56:35;22.85;;;8.70;;
71298;SDS011;59083;47.974;21.722;2022-08-25T04:59:37;26.75;;;8.10;;
71298;SDS011;59083;47.974;21.722;2022-08-25T05:02:38;34.22;;;8.43;;
71298;SDS011;59083;47.974;21.722;2022-08-25T05:05:39;30.57;;;10.17;;
71298;SDS011;59083;47.974;21.722;2022-08-25T05:08:41;34.85;;;8.10;;
71298;SDS011;59083;47.974;21.722;2022-08-25T05:11:42;30.92;;;9.55;;
71298;SDS011;59083;47.974;21.722;2022-08-25T05:14:43;31.33;;;7.95;;
71298;SDS011;59083;47.974;21.722;2022-08-25T05:17:45;25.70;;;8.32;;
71298;SDS011;59083;47.974;21.722;2022-08-25T05:20:46;30.07;;;8.27;;
71298;SDS011;59083;47.974;21.722;2022-08-25T05:23:47;37.60;;;7.78;;
71298;SDS011;59083;47.974;21.722;2022-08-25T05:26:49;32.22;;;7.65;;
71298;SDS011;59083;47.974;21.722;2022-08-25T05:29:50;24.27;;;7.30;;
71298;SDS011;59083;47.974;21.722;2022-08-25T05:32:51;23.60;;;7.30;;
71298;SDS011;59083;47.974;21.722;2022-08-25T05:35:53;32.43;;;8.13;;
71298;SDS011;59083;47.974;21.722;2022-08-25T05:38:55;32.97;;;7.97;;
71298;SDS011;59083;47.974;21.722;2022-08-25T05:41:56;26.75;;;6.87;;
71298;SDS011;59083;47.974;21.722;2022-08-25T05:44:57;26.05;;;6.70;;
71298;SDS011;59083;47.974;21.722;2022-08-25T05:47:59;29.90;;;6.87;;
71298;SDS011;59083;47.974;21.722;2022-08-25T05:51:02;30.27;;;7.27;;
71298;SDS011;59083;47.974;21.722;2022-08-25T05:54:06;27.90;;;6.90;;
71298;SDS011;59083;47.974;21.722;2022-08-25T05:57:07;34.53;;;6.60;;
71298;SDS011;59083;47.974;21.722;2022-08-25T06:00:09;27.67;;;6.97;;
71298;SDS011;59083;47.974;21.722;2022-08-25T06:03:12;26.45;;;7.30;;
71298;SDS011;59083;47.974;21.722;2022-08-25T06:06:14;22.20;;;6.40;;
71298;SDS011;59083;47.974;21.722;2022-08-25T06:09:16;30.90;;;6.10;;
71298;SDS011;59083;47.974;21.722;2022-08-25T06:12:17;23.42;;;6.75;;
71298;SDS011;59083;47.974;21.722;2022-08-25T06:15:21;26.12;;;6.30;;
71298;SDS011;59083;47.974;21.722;2022-08-25T06:18:24;25.10;;;6.85;;
71298;SDS011;59083;47.974;21.722;2022-08-25T06:21:26;25.37;;;6.80;;
71298;SDS011;59083;47.974;21.722;2022-08-25T06:24:28;26.45;;;6.65;;
71298;SDS011;59083;47.974;21.722;2022-08-25T06:27:29;21.55;;;5.60;;
71298;SDS011;59083;47.974;21.722;2022-08-25T06:30:31;24.25;;;6.30;;
71298;SDS011;59083;47.974;21.722;2022-08-25T06:33:32;25.33;;;6.47;;
71298;SDS011;59083;47.974;21.722;2022-08-25T06:36:33;23.73;;;6.17;;
71298;SDS011;59083;47.974;21.722;2022-08-25T06:39:35;32.08;;;6.60;;
71298;SDS011;59083;47.974;21.722;2022-08-25T06:42:36;25.42;;;5.90;;
71298;SDS011;59083;47.974;21.722;2022-08-25T06:45:37;19.40;;;5.78;;
71298;SDS011;59083;47.974;21.722;2022-08-25T06:48:39;29.37;;;6.32;;
71298;SDS011;59083;47.974;21.722;2022-08-25T06:51:40;21.67;;;5.83;;
71298;SDS011;59083;47.974;21.722;2022-08-25T06:54:42;25.33;;;5.40;;
71298;SDS011;59083;47.974;21.722;2022-08-25T06:57:43;25.45;;;5.40;;
71298;SDS011;59083;47.974;21.722;2022-08-25T07:00:45;24.85;;;6.10;;
71298;SDS011;59083;47.974;21.722;2022-08-25T07:03:46;20.62;;;5.80;;
71298;SDS011;59083;47.974;21.722;2022-08-25T07:06:48;21.00;;;6.10;;
71298;SDS011;59083;47.974;21.722;2022-08-25T07:09:49;18.73;;;4.95;;
71298;SDS011;59083;47.974;21.722;2022-08-25T07:12:50;23.95;;;5.60;;
71298;SDS011;59083;47.974;21.722;2022-08-25T07:15:52;28.08;;;6.05;;
71298;SDS011;59083;47.974;21.722;2022-08-25T07:18:55;23.33;;;5.20;;
71298;SDS011;59083;47.974;21.722;2022-08-25T07:21:56;21.73;;;5.53;;
71298;SDS011;59083;47.974;21.722;2022-08-25T07:24:57;21.75;;;5.65;;
71298;SDS011;59083;47.974;21.722;2022-08-25T07:27:59;21.60;;;5.53;;
71298;SDS011;59083;47.974;21.722;2022-08-25T07:31:01;22.08;;;5.80;;
71298;SDS011;59083;47.974;21.722;2022-08-25T07:34:02;22.58;;;6.00;;
71298;SDS011;59083;47.974;21.722;2022-08-25T07:37:22;25.00;;;5.63;;
71298;SDS011;59083;47.974;21.722;2022-08-25T07:40:25;18.33;;;5.18;;
71298;SDS011;59083;47.974;21.722;2022-08-25T07:43:28;27.08;;;5.47;;
71298;SDS011;59083;47.974;21.722;2022-08-25T07:46:30;15.82;;;4.93;;
71298;SDS011;59083;47.974;21.722;2022-08-25T07:49:31;21.67;;;5.65;;
71298;SDS011;59083;47.974;21.722;2022-08-25T07:52:32;18.33;;;5.20;;
71298;SDS011;59083;47.974;21.722;2022-08-25T07:55:34;21.80;;;5.50;;
71298;SDS011;59083;47.974;21.722;2022-08-25T07:58:39;19.00;;;5.10;;
71298;SDS011;59083;47.974;21.722;2022-08-25T08:01:41;20.75;;;5.62;;
71298;SDS011;59083;47.974;21.722;2022-08-25T08:04:42;19.25;;;5.78;;
71298;SDS011;59083;47.974;21.722;2022-08-25T08:07:45;21.00;;;5.50;;
71298;SDS011;59083;47.974;21.722;2022-08-25T08:10:47;19.52;;;5.00;;
71298;SDS011;59083;47.974;21.722;2022-08-25T08:13:49;17.65;;;5.18;;
71298;SDS011;59083;47.974;21.722;2022-08-25T08:16:51;23.35;;;5.75;;
71298;SDS011;59083;47.974;21.722;2022-08-25T08:19:53;16.37;;;4.75;;
71298;SDS011;59083;47.974;21.722;2022-08-25T08:22:55;22.23;;;5.70;;
71298;SDS011;59083;47.974;21.722;2022-08-25T08:25:56;29.48;;;5.30;;
71298;SDS011;59083;47.974;21.722;2022-08-25T08:28:58;23.52;;;5.12;;
71298;SDS011;59083;47.974;21.722;2022-08-25T08:32:01;18.80;;;5.57;;
71298;SDS011;59083;47.974;21.722;2022-08-25T08:35:04;18.98;;;4.78;;
71298;SDS011;59083;47.974;21.722;2022-08-25T08:38:05;33.33;;;5.13;;
71298;SDS011;59083;47.974;21.722;2022-08-25T08:44:54;25.83;;;5.35;;
71298;SDS011;59083;47.974;21.722;2022-08-25T08:48:24;26.25;;;5.03;;
71298;SDS011;59083;47.974;21.722;2022-08-25T08:51:46;15.30;;;4.28;;
71298;SDS011;59083;47.974;21.722;2022-08-25T08:54:55;21.63;;;4.80;;
71298;SDS011;59083;47.974;21.722;2022-08-25T08:58:03;25.58;;;5.18;;
71298;SDS011;59083;47.974;21.722;2022-08-25T09:01:09;21.37;;;6.07;;
71298;SDS011;59083;47.974;21.722;2022-08-25T09:04:21;17.67;;;5.35;;
71298;SDS011;59083;47.974;21.722;2022-08-25T09:07:48;24.42;;;5.10;;
71298;SDS011;59083;47.974;21.722;2022-08-25T09:10:59;20.47;;;4.73;;
71298;SDS011;59083;47.974;21.722;2022-08-25T09:31:22;19.02;;;4.75;;
71298;SDS011;59083;47.974;21.722;2022-08-25T09:34:31;20.80;;;5.10;;
71298;SDS011;59083;47.974;21.722;2022-08-25T09:37:34;22.25;;;5.10;;
71298;SDS011;59083;47.974;21.722;2022-08-25T09:40:37;21.55;;;4.93;;
71298;SDS011;59083;47.974;21.722;2022-08-25T09:43:43;17.87;;;4.47;;
71298;SDS011;59083;47.974;21.722;2022-08-25T09:50:02;23.90;;;5.15;;
71298;SDS011;59083;47.974;21.722;2022-08-25T09:53:12;21.98;;;5.18;;
71298;SDS011;59083;47.974;21.722;2022-08-25T09:56:14;22.23;;;5.25;;
71298;SDS011;59083;47.974;21.722;2022-08-25T09:59:22;23.53;;;6.23;;
71298;SDS011;59083;47.974;21.722;2022-08-25T10:02:27;25.15;;;4.97;;
71298;SDS011;59083;47.974;21.722;2022-08-25T10:05:30;25.60;;;5.87;;
71298;SDS011;59083;47.974;21.722;2022-08-25T10:08:39;19.58;;;5.20;;
71298;SDS011;59083;47.974;21.722;2022-08-25T10:11:51;22.02;;;4.95;;
71298;SDS011;59083;47.974;21.722;2022-08-25T10:14:54;27.87;;;4.50;;
71298;SDS011;59083;47.974;21.722;2022-08-25T10:21:27;26.87;;;5.32;;
71298;SDS011;59083;47.974;21.722;2022-08-25T10:24:28;26.20;;;4.47;;
71298;SDS011;59083;47.974;21.722;2022-08-25T10:27:34;21.48;;;4.50;;
71298;SDS011;59083;47.974;21.722;2022-08-25T10:48:25;28.73;;;5.03;;
71298;SDS011;59083;47.974;21.722;2022-08-25T10:51:59;24.85;;;4.80;;
71298;SDS011;59083;47.974;21.722;2022-08-25T10:55:11;21.33;;;4.47;;
71298;SDS011;59083;47.974;21.722;2022-08-25T11:01:30;28.23;;;5.70;;
71298;SDS011;59083;47.974;21.722;2022-08-25T11:04:58;28.20;;;5.17;;
71298;SDS011;59083;47.974;21.722;2022-08-25T11:11:37;22.40;;;4.60;;
71298;SDS011;59083;47.974;21.722;2022-08-25T11:14:48;22.05;;;4.07;;
71298;SDS011;59083;47.974;21.722;2022-08-25T11:17:58;26.20;;;4.90;;
71298;SDS011;59083;47.974;21.722;2022-08-25T11:21:09;26.83;;;5.20;;
71298;SDS011;59083;47.974;21.722;2022-08-25T11:24:31;24.77;;;5.25;;
71298;SDS011;59083;47.974;21.722;2022-08-25T11:27:51;25.00;;;4.68;;
71298;SDS011;59083;47.974;21.722;2022-08-25T11:31:06;28.10;;;4.20;;
71298;SDS011;59083;47.974;21.722;2022-08-25T11:34:12;24.12;;;3.90;;
71298;SDS011;59083;47.974;21.722;2022-08-25T11:37:25;18.40;;;4.30;;
71298;SDS011;59083;47.974;21.722;2022-08-25T11:50:06;29.65;;;5.03;;
71298;SDS011;59083;47.974;21.722;2022-08-25T11:53:30;21.60;;;4.23;;
71298;SDS011;59083;47.974;21.722;2022-08-25T11:56:36;25.83;;;4.93;;
71298;SDS011;59083;47.974;21.722;2022-08-25T12:02:57;27.48;;;5.62;;
71298;SDS011;59083;47.974;21.722;2022-08-25T12:09:27;23.33;;;4.50;;
71298;SDS011;59083;47.974;21.722;2022-08-25T12:18:43;24.40;;;4.20;;
71298;SDS011;59083;47.974;21.722;2022-08-25T12:21:45;23.50;;;4.53;;
71298;SDS011;59083;47.974;21.722;2022-08-25T12:24:54;25.13;;;4.90;;
71298;SDS011;59083;47.974;21.722;2022-08-25T12:28:04;24.50;;;4.47;;
71298;SDS011;59083;47.974;21.722;2022-08-25T12:34:53;29.63;;;4.43;;
71298;SDS011;59083;47.974;21.722;2022-08-25T12:38:11;26.15;;;4.22;;
71298;SDS011;59083;47.974;21.722;2022-08-25T12:41:20;28.03;;;4.40;;
71298;SDS011;59083;47.974;21.722;2022-08-25T12:47:41;33.22;;;5.20;;
71298;SDS011;59083;47.974;21.722;2022-08-25T12:50:47;24.40;;;4.37;;
71298;SDS011;59083;47.974;21.722;2022-08-25T12:54:10;27.80;;;5.05;;
71298;SDS011;59083;47.974;21.722;2022-08-25T12:57:36;29.57;;;4.83;;
71298;SDS011;59083;47.974;21.722;2022-08-25T13:00:50;28.08;;;4.32;;
71298;SDS011;59083;47.974;21.722;2022-08-25T13:16:52;27.40;;;4.18;;
71298;SDS011;59083;47.974;21.722;2022-08-25T13:23:25;27.15;;;5.18;;
71298;SDS011;59083;47.974;21.722;2022-08-25T13:26:30;33.58;;;4.10;;
71298;SDS011;59083;47.974;21.722;2022-08-25T13:29:34;21.97;;;4.40;;
71298;SDS011;59083;47.974;21.722;2022-08-25T13:32:48;23.48;;;4.70;;
71298;SDS011;59083;47.974;21.722;2022-08-25T13:35:51;25.45;;;5.03;;
71298;SDS011;59083;47.974;21.722;2022-08-25T13:39:16;29.12;;;4.90;;
71298;SDS011;59083;47.974;21.722;2022-08-25T13:42:25;23.90;;;4.68;;
71298;SDS011;59083;47.974;21.722;2022-08-25T13:45:27;25.83;;;4.40;;
71298;SDS011;59083;47.974;21.722;2022-08-25T13:51:37;35.92;;;4.57;;
71298;SDS011;59083;47.974;21.722;2022-08-25T13:54:49;23.87;;;4.20;;
71298;SDS011;59083;47.974;21.722;2022-08-25T13:57:52;28.35;;;4.87;;
71298;SDS011;59083;47.974;21.722;2022-08-25T14:01:01;21.57;;;4.50;;
71298;SDS011;59083;47.974;21.722;2022-08-25T14:07:24;30.62;;;4.25;;
71298;SDS011;59083;47.974;21.722;2022-08-25T14:13:41;27.30;;;4.72;;
71298;SDS011;59083;47.974;21.722;2022-08-25T14:19:49;23.42;;;4.68;;
71298;SDS011;59083;47.974;21.722;2022-08-25T14:22:53;21.48;;;4.45;;
71298;SDS011;59083;47.974;21.722;2022-08-25T14:25:56;28.00;;;4.53;;
71298;SDS011;59083;47.974;21.722;2022-08-25T14:28:58;24.45;;;4.47;;
71298;SDS011;59083;47.974;21.722;2022-08-25T14:31:59;22.70;;;3.83;;
71298;SDS011;59083;47.974;21.722;2022-08-25T14:35:01;26.02;;;4.22;;
71298;SDS011;59083;47.974;21.722;2022-08-25T14:38:05;31.35;;;4.97;;
71298;SDS011;59083;47.974;21.722;2022-08-25T14:41:09;27.08;;;4.22;;
71298;SDS011;59083;47.974;21.722;2022-08-25T14:44:11;31.10;;;4.55;;
71298;SDS011;59083;47.974;21.722;2022-08-25T14:47:13;23.33;;;4.30;;
71298;SDS011;59083;47.974;21.722;2022-08-25T14:50:14;26.98;;;4.30;;
71298;SDS011;59083;47.974;21.722;2022-08-25T14:53:16;27.85;;;4.18;;
71298;SDS011;59083;47.974;21.722;2022-08-25T14:56:17;19.95;;;3.70;;
71298;SDS011;59083;47.974;21.722;2022-08-25T14:59:19;19.95;;;4.00;;
71298;SDS011;59083;47.974;21.722;2022-08-25T15:02:21;43.10;;;4.93;;
71298;SDS011;59083;47.974;21.722;2022-08-25T15:05:24;26.92;;;4.45;;
71298;SDS011;59083;47.974;21.722;2022-08-25T15:08:27;24.08;;;4.47;;
71298;SDS011;59083;47.974;21.722;2022-08-25T15:11:48;24.87;;;4.65;;
71298;SDS011;59083;47.974;21.722;2022-08-25T15:14:51;26.92;;;4.87;;
71298;SDS011;59083;47.974;21.722;2022-08-25T15:17:53;21.50;;;4.10;;
71298;SDS011;59083;47.974;21.722;2022-08-25T15:20:55;24.73;;;4.30;;
71298;SDS011;59083;47.974;21.722;2022-08-25T15:23:57;28.27;;;4.40;;
71298;SDS011;59083;47.974;21.722;2022-08-25T15:27:01;29.48;;;4.60;;
71298;SDS011;59083;47.974;21.722;2022-08-25T15:30:05;29.45;;;4.62;;
71298;SDS011;59083;47.974;21.722;2022-08-25T15:33:07;32.53;;;4.40;;
71298;SDS011;59083;47.974;21.722;2022-08-25T15:36:09;22.13;;;3.85;;
71298;SDS011;59083;47.974;21.722;2022-08-25T15:39:15;24.25;;;4.28;;
71298;SDS011;59083;47.974;21.722;2022-08-25T15:42:17;36.03;;;4.93;;
71298;SDS011;59083;47.974;21.722;2022-08-25T15:45:19;25.65;;;5.57;;
71298;SDS011;59083;47.974;21.722;2022-08-25T15:48:20;24.53;;;4.50;;
71298;SDS011;59083;47.974;21.722;2022-08-25T15:51:21;29.37;;;4.57;;
71298;SDS011;59083;47.974;21.722;2022-08-25T15:54:24;24.33;;;4.22;;
71298;SDS011;59083;47.974;21.722;2022-08-25T15:57:26;22.23;;;4.40;;
71298;SDS011;59083;47.974;21.722;2022-08-25T16:00:28;24.85;;;3.85;;
71298;SDS011;59083;47.974;21.722;2022-08-25T16:03:29;25.60;;;3.80;;
71298;SDS011;59083;47.974;21.722;2022-08-25T16:06:31;27.92;;;4.75;;
71298;SDS011;59083;47.974;21.722;2022-08-25T16:09:33;30.70;;;4.37;;
71298;SDS011;59083;47.974;21.722;2022-08-25T16:12:35;34.15;;;4.87;;
71298;SDS011;59083;47.974;21.722;2022-08-25T16:15:37;26.30;;;4.45;;
71298;SDS011;59083;47.974;21.722;2022-08-25T16:18:39;21.60;;;4.43;;
71298;SDS011;59083;47.974;21.722;2022-08-25T16:21:40;19.95;;;4.15;;
71298;SDS011;59083;47.974;21.722;2022-08-25T16:24:42;25.52;;;4.37;;
71298;SDS011;59083;47.974;21.722;2022-08-25T16:27:45;27.20;;;5.20;;
71298;SDS011;59083;47.974;21.722;2022-08-25T16:30:47;24.50;;;4.78;;
71298;SDS011;59083;47.974;21.722;2022-08-25T16:33:49;22.93;;;4.53;;
71298;SDS011;59083;47.974;21.722;2022-08-25T16:36:51;22.50;;;3.97;;
71298;SDS011;59083;47.974;21.722;2022-08-25T16:39:54;34.08;;;5.37;;
71298;SDS011;59083;47.974;21.722;2022-08-25T16:42:55;20.52;;;4.18;;
71298;SDS011;59083;47.974;21.722;2022-08-25T16:46:01;27.33;;;4.55;;
71298;SDS011;59083;47.974;21.722;2022-08-25T16:49:04;31.17;;;4.93;;
71298;SDS011;59083;47.974;21.722;2022-08-25T16:52:06;27.98;;;4.72;;
71298;SDS011;59083;47.974;21.722;2022-08-25T16:55:28;31.75;;;4.93;;
71298;SDS011;59083;47.974;21.722;2022-08-25T16:58:32;25.12;;;4.87;;
71298;SDS011;59083;47.974;21.722;2022-08-25T17:01:34;30.10;;;5.95;;
71298;SDS011;59083;47.974;21.722;2022-08-25T17:04:38;28.43;;;5.80;;
71298;SDS011;59083;47.974;21.722;2022-08-25T17:07:40;31.65;;;5.30;;
71298;SDS011;59083;47.974;21.722;2022-08-25T17:10:41;26.55;;;4.82;;
71298;SDS011;59083;47.974;21.722;2022-08-25T17:13:48;23.27;;;4.97;;
71298;SDS011;59083;47.974;21.722;2022-08-25T17:16:52;24.67;;;5.35;;
71298;SDS011;59083;47.974;21.722;2022-08-25T17:19:56;28.50;;;5.07;;
71298;SDS011;59083;47.974;21.722;2022-08-25T17:22:57;25.12;;;4.70;;
71298;SDS011;59083;47.974;21.722;2022-08-25T17:25:58;25.33;;;4.90;;
71298;SDS011;59083;47.974;21.722;2022-08-25T17:29:00;29.10;;;4.82;;
71298;SDS011;59083;47.974;21.722;2022-08-25T17:32:01;25.50;;;6.10;;
71298;SDS011;59083;47.974;21.722;2022-08-25T17:35:04;22.67;;;5.10;;
71298;SDS011;59083;47.974;21.722;2022-08-25T17:38:05;23.17;;;5.35;;
71298;SDS011;59083;47.974;21.722;2022-08-25T17:41:07;33.97;;;6.10;;
71298;SDS011;59083;47.974;21.722;2022-08-25T17:44:10;28.73;;;5.37;;
71298;SDS011;59083;47.974;21.722;2022-08-25T17:47:13;27.00;;;5.55;;
71298;SDS011;59083;47.974;21.722;2022-08-25T17:50:14;27.03;;;6.03;;
71298;SDS011;59083;47.974;21.722;2022-08-25T17:53:15;26.05;;;5.25;;
71298;SDS011;59083;47.974;21.722;2022-08-25T17:56:18;22.62;;;5.57;;
71298;SDS011;59083;47.974;21.722;2022-08-25T17:59:21;21.50;;;5.65;;
71298;SDS011;59083;47.974;21.722;2022-08-25T18:02:22;32.83;;;5.87;;
71298;SDS011;59083;47.974;21.722;2022-08-25T18:05:24;36.27;;;5.13;;
71298;SDS011;59083;47.974;21.722;2022-08-25T18:08:25;25.20;;;5.37;;
71298;SDS011;59083;47.974;21.722;2022-08-25T18:11:27;20.55;;;4.90;;
71298;SDS011;59083;47.974;21.722;2022-08-25T18:14:28;22.13;;;4.65;;
71298;SDS011;59083;47.974;21.722;2022-08-25T18:17:30;22.25;;;6.28;;
71298;SDS011;59083;47.974;21.722;2022-08-25T18:20:32;28.37;;;6.60;;
71298;SDS011;59083;47.974;21.722;2022-08-25T18:23:33;28.83;;;5.97;;
71298;SDS011;59083;47.974;21.722;2022-08-25T18:26:35;27.70;;;5.10;;
71298;SDS011;59083;47.974;21.722;2022-08-25T18:29:36;23.17;;;4.95;;
71298;SDS011;59083;47.974;21.722;2022-08-25T18:32:37;26.48;;;5.15;;
71298;SDS011;59083;47.974;21.722;2022-08-25T18:35:39;23.20;;;5.10;;
71298;SDS011;59083;47.974;21.722;2022-08-25T18:38:41;19.77;;;5.07;;
71298;SDS011;59083;47.974;21.722;2022-08-25T18:42:03;22.17;;;5.20;;
71298;SDS011;59083;47.974;21.722;2022-08-25T18:45:06;24.08;;;6.40;;
71298;SDS011;59083;47.974;21.722;2022-08-25T18:48:08;24.48;;;5.93;;
71298;SDS011;59083;47.974;21.722;2022-08-25T18:51:10;28.90;;;6.27;;
71298;SDS011;59083;47.974;21.722;2022-08-25T18:54:14;34.17;;;5.80;;
71298;SDS011;59083;47.974;21.722;2022-08-25T18:57:16;37.28;;;6.28;;
71298;SDS011;59083;47.974;21.722;2022-08-25T19:00:19;25.62;;;5.25;;
71298;SDS011;59083;47.974;21.722;2022-08-25T19:03:22;23.65;;;5.50;;
71298;SDS011;59083;47.974;21.722;2022-08-25T19:06:23;19.73;;;5.23;;
71298;SDS011;59083;47.974;21.722;2022-08-25T19:09:25;24.15;;;5.20;;
71298;SDS011;59083;47.974;21.722;2022-08-25T19:12:26;28.38;;;6.15;;
71298;SDS011;59083;47.974;21.722;2022-08-25T19:15:27;25.73;;;5.82;;
71298;SDS011;59083;47.974;21.722;2022-08-25T19:18:29;28.23;;;5.03;;
71298;SDS011;59083;47.974;21.722;2022-08-25T19:21:31;18.63;;;5.30;;
71298;SDS011;59083;47.974;21.722;2022-08-25T19:24:32;23.48;;;5.55;;
71298;SDS011;59083;47.974;21.722;2022-08-25T19:27:34;18.98;;;5.40;;
71298;SDS011;59083;47.974;21.722;2022-08-25T19:30:35;23.42;;;5.75;;
71298;SDS011;59083;47.974;21.722;2022-08-25T19:33:36;23.12;;;6.05;;
71298;SDS011;59083;47.974;21.722;2022-08-25T19:36:38;22.97;;;5.70;;
71298;SDS011;59083;47.974;21.722;2022-08-25T19:39:40;25.40;;;6.03;;
71298;SDS011;59083;47.974;21.722;2022-08-25T19:42:44;21.12;;;5.37;;
71298;SDS011;59083;47.974;21.722;2022-08-25T19:45:46;23.67;;;5.78;;
71298;SDS011;59083;47.974;21.722;2022-08-25T19:48:47;33.05;;;6.82;;